Time;durP1;ratioP1;P1;durP2;ratioP2;P2;SDS_P1;SDS_P2;PMS_P1;PMS_P2;Temp;Humidity;BMP_temperature;BMP_pressure;BME280_temperature;BME280_humidity;BME280_pressure;Samples;Min_cycle;Max_cycle;Signal;HPM_P1;HPM_P2
2023/01/11 00:09:53;;;;;;;32.40;18.60;;;;;;;4.14;96.32;98971.64;435643;1253;109362;-40
2023/01/11 00:20:00;;;;;;;43.80;23.10;;;;;;;4.14;96.23;98977.72;435753;1253;97493;-39
2023/01/11 00:30:09;;;;;;;39.50;20.80;;;;;;;4.00;96.15;98985.00;435753;1253;111543;-40
2023/01/11 00:40:16;;;;;;;44.30;22.10;;;;;;;3.92;96.02;98983.60;435681;1253;108816;-38
2023/01/11 00:50:23;;;;;;;31.80;21.10;;;;;;;3.93;95.99;98985.58;435631;1254;97489;-39
2023/01/11 01:00:32;;;;;;;26.10;15.50;;;;;;;4.02;96.15;98989.95;435487;1251;110915;-41
2023/01/11 01:10:40;;;;;;;27.90;16.90;;;;;;;4.07;95.97;98985.40;435546;1250;96698;-39
2023/01/11 01:20:50;;;;;;;41.90;20.90;;;;;;;4.00;96.04;98985.80;435439;1254;110297;-40
2023/01/11 01:30:57;;;;;;;36.20;19.90;;;;;;;3.97;96.09;98987.37;435558;1256;108989;-40
2023/01/11 01:41:05;;;;;;;30.00;15.70;;;;;;;3.84;95.83;98983.85;435421;1251;97863;-42
2023/01/11 01:51:18;;;;;;;24.90;15.50;;;;;;;3.86;95.94;98980.29;435605;1253;109374;-40
2023/01/11 02:11:51;;;;;;;32.00;18.90;;;;;;;3.83;95.53;98962.74;435745;1263;97791;-40
2023/01/11 02:22:00;;;;;;;37.90;21.20;;;;;;;3.71;95.66;98959.96;435692;1251;107371;-40
2023/01/11 02:32:07;;;;;;;52.60;26.70;;;;;;;3.50;95.47;98957.10;435735;1253;97792;-40
2023/01/11 02:52:51;;;;;;;29.20;20.50;;;;;;;3.34;95.47;98949.60;433709;1261;465385;-39
2023/01/11 03:03:17;;;;;;;33.70;21.00;;;;;;;3.40;95.74;98948.70;434036;1262;97908;-41
2023/01/11 03:13:31;;;;;;;29.60;18.40;;;;;;;3.46;95.79;98953.74;433977;1263;109554;-40
2023/01/11 03:23:37;;;;;;;46.60;25.40;;;;;;;3.39;95.60;98950.25;433947;1261;107817;-40
2023/01/11 03:33:46;;;;;;;44.90;26.60;;;;;;;3.29;95.87;98953.25;434056;1258;97498;-40
2023/01/11 03:43:54;;;;;;;;;;;;;;;3.23;95.69;98953.50;433977;1261;109972;-39
2023/01/11 03:54:04;;;;;;;44.70;28.00;;;;;;;3.15;95.55;98939.41;434173;1260;107584;-40
2023/01/11 04:04:12;;;;;;;46.50;29.00;;;;;;;3.13;95.51;98935.73;434128;1261;97486;-40
2023/01/11 04:14:19;;;;;;;48.40;27.70;;;;;;;3.17;95.76;98943.32;434083;1260;107920;-39
2023/01/11 04:24:26;;;;;;;45.30;28.40;;;;;;;3.30;95.93;98943.94;434001;1269;97481;-39
2023/01/11 04:34:33;;;;;;;64.10;37.20;;;;;;;3.23;95.67;98946.34;434071;1261;111560;-39
2023/01/11 04:44:40;;;;;;;68.50;35.50;;;;;;;3.04;95.77;98928.02;434121;1260;108621;-39
2023/01/11 05:04:54;;;;;;;54.70;30.20;;;;;;;2.94;95.68;98918.59;434117;1260;111210;-40
2023/01/11 05:15:01;;;;;;;39.30;23.40;;;;;;;2.90;95.72;98919.89;434053;1264;107110;-40
2023/01/11 05:25:09;;;;;;;58.50;34.30;;;;;;;2.93;95.77;98906.56;433985;1267;97646;-40
2023/01/11 05:35:15;;;;;;;62.10;34.50;;;;;;;2.89;95.88;98889.70;434036;1260;108059;-40
2023/01/11 05:45:30;;;;;;;77.50;38.70;;;;;;;2.88;95.89;98883.77;434095;1257;96633;-40
2023/01/11 05:55:37;;;;;;;68.90;34.40;;;;;;;2.75;95.74;98878.42;434060;1268;110003;-40
2023/01/11 06:05:46;;;;;;;60.10;31.50;;;;;;;2.64;95.72;98866.86;433897;1256;107444;-39
2023/01/11 06:15:53;;;;;;;49.40;23.40;;;;;;;2.44;95.76;98865.54;434108;1255;97477;-38
2023/01/11 06:26:02;;;;;;;46.80;26.20;;;;;;;2.26;95.88;98866.80;434018;1258;108409;-38
2023/01/11 06:36:10;;;;;;;50.90;25.10;;;;;;;2.27;96.24;98866.84;434169;1257;97237;-40
2023/01/11 06:46:18;;;;;;;44.30;23.00;;;;;;;2.32;96.30;98858.58;434189;1260;110446;-39
2023/01/11 06:56:25;;;;;;;33.70;18.90;;;;;;;2.28;96.15;98865.98;434111;1260;107475;-39
2023/01/11 07:06:34;;;;;;;30.70;17.30;;;;;;;1.98;95.88;98865.04;434027;1260;97888;-39
2023/01/11 07:16:41;;;;;;;23.10;14.20;;;;;;;1.67;96.04;98862.00;434009;1260;107346;-39
2023/01/11 07:26:47;;;;;;;27.60;15.30;;;;;;;1.39;96.07;98862.73;433900;1258;97854;-40
2023/01/11 07:36:53;;;;;;;29.90;15.40;;;;;;;1.30;96.28;98860.45;434051;1260;110120;-39
2023/01/11 07:47:01;;;;;;;28.60;15.80;;;;;;;1.27;96.10;98857.45;434050;1257;108476;-40
2023/01/11 07:57:08;;;;;;;30.80;17.20;;;;;;;1.31;96.17;98849.21;434088;1261;96640;-40
2023/01/11 08:17:22;;;;;;;44.60;22.70;;;;;;;1.56;96.62;98826.55;434056;1256;97986;-40
2023/01/11 08:27:29;;;;;;;44.00;24.00;;;;;;;1.84;96.38;98820.34;434085;1260;109572;-40
2023/01/11 08:37:37;;;;;;;53.70;28.50;;;;;;;2.44;97.01;98812.67;433968;1255;108323;-39
2023/01/11 08:47:45;;;;;;;45.50;25.60;;;;;;;3.22;96.85;98813.66;434145;1261;96614;-40
2023/01/11 08:57:53;;;;;;;52.10;26.70;;;;;;;3.60;96.40;98817.48;434061;1260;109737;-39
2023/01/11 09:07:59;;;;;;;46.20;25.00;;;;;;;3.47;95.63;98820.28;434138;1260;109456;-40
2023/01/11 09:18:04;;;;;;;47.60;26.60;;;;;;;3.41;95.32;98825.45;434032;1260;97896;-39
2023/01/11 09:28:12;;;;;;;49.50;25.60;;;;;;;3.63;95.66;98829.95;434126;1260;111055;-39
2023/01/11 09:38:19;;;;;;;34.10;21.90;;;;;;;3.89;95.58;98816.58;433988;1260;108075;-40
2023/01/11 09:48:42;;;;;;;30.10;19.60;;;;;;;4.30;95.43;98789.63;434069;1257;97919;-39
2023/01/11 09:58:52;;;;;;;35.20;18.80;;;;;;;4.67;95.02;98772.88;434017;1260;108069;-39
2023/01/11 10:09:03;;;;;;;26.80;12.40;;;;;;;4.90;94.27;98753.75;434390;1257;96687;-40
2023/01/11 10:19:38;;;;;;;18.50;10.40;;;;;;;4.97;92.07;98751.91;434115;1260;109641;-40
2023/01/11 10:51:13;;;;;;;30.40;14.40;;;;;;;5.54;91.61;98736.82;432468;1260;110109;-39
2023/01/11 11:01:27;;;;;;;26.70;14.70;;;;;;;5.57;90.37;98710.36;432460;1260;108150;-40
2023/01/11 11:11:32;;;;;;;29.50;15.80;;;;;;;5.55;89.47;98701.71;433860;1256;98005;-40
2023/01/11 11:31:50;;;;;;;27.70;14.90;;;;;;;5.68;86.77;98661.41;434027;1259;97529;-39
2023/01/11 11:42:07;;;;;;;33.70;17.50;;;;;;;5.64;86.38;98646.58;434022;1258;109893;-40
2023/01/11 11:52:15;;;;;;;23.10;12.90;;;;;;;5.67;85.87;98628.67;433902;1260;108941;-40
2023/01/11 12:02:22;;;;;;;30.30;16.70;;;;;;;5.68;84.81;98619.19;433937;1256;97038;-39
2023/01/11 12:12:31;;;;;;;29.20;16.50;;;;;;;5.69;84.86;98607.50;433962;1256;110230;-40
2023/01/11 12:22:38;;;;;;;25.40;15.50;;;;;;;5.59;84.13;98595.80;433896;1256;107997;-40
2023/01/11 12:43:15;;;;;;;39.50;21.20;;;;;;;5.45;84.17;98576.80;433879;1256;110315;-40
2023/01/11 12:53:28;;;;;;;35.90;18.60;;;;;;;5.21;83.09;98558.86;433887;1260;107313;-39
2023/01/11 13:03:52;;;;;;;39.60;21.80;;;;;;;5.08;83.41;98536.28;434122;1257;97934;-39
2023/01/11 13:14:03;;;;;;;41.30;20.60;;;;;;;4.94;83.76;98531.79;433939;1260;108385;-40
2023/01/11 13:24:16;;;;;;;35.50;19.70;;;;;;;4.87;83.66;98518.05;433960;1258;97884;-40
2023/01/11 13:34:26;;;;;;;29.70;17.50;;;;;;;4.81;84.08;98501.99;433956;1261;111078;-40
2023/01/11 13:44:38;;;;;;;42.70;22.10;;;;;;;4.73;84.26;98495.23;434038;1261;107705;-40
2023/01/11 13:54:44;;;;;;;43.10;19.20;;;;;;;4.62;84.07;98482.25;434006;1258;96587;-41
2023/01/11 14:04:58;;;;;;;40.80;20.80;;;;;;;4.56;84.11;98479.21;433963;1260;106635;-39
2023/01/11 14:15:11;;;;;;;57.70;27.40;;;;;;;4.41;84.49;98485.64;433997;1259;96652;-39
2023/01/11 14:25:15;;;;;;;37.40;21.70;;;;;;;4.28;84.47;98480.52;434127;1261;109549;-40
2023/01/11 14:35:45;;;;;;;36.40;20.40;;;;;;;4.17;84.73;98478.71;433985;1261;107891;-39
2023/01/11 14:46:29;;;;;;;49.60;24.30;;;;;;;4.02;84.93;98465.30;434046;1259;96673;-40
2023/01/11 14:56:46;;;;;;;60.80;27.30;;;;;;;3.83;85.37;98466.98;433435;1260;510511;-40
2023/01/11 15:06:55;;;;;;;50.20;25.90;;;;;;;3.69;85.34;98462.92;434091;1260;107302;-39
2023/01/11 15:27:23;;;;;;;51.10;27.40;;;;;;;3.47;85.90;98448.06;434057;1260;110819;-40
2023/01/11 15:37:47;;;;;;;76.20;35.90;;;;;;;3.32;86.07;98445.16;434019;1260;109098;-41
2023/01/11 15:48:01;;;;;;;77.10;37.60;;;;;;;3.12;86.36;98454.99;434089;1260;97887;-41
2023/01/11 16:08:27;;;;;;;57.80;30.60;;;;;;;2.94;86.79;98442.23;434087;1261;106189;-41
2023/01/11 16:18:38;;;;;;;69.10;36.60;;;;;;;2.87;87.01;98441.84;434064;1257;97890;-40
2023/01/11 16:28:48;;;;;;;64.50;35.60;;;;;;;2.78;87.34;98426.90;434010;1261;107381;-39
2023/01/11 16:38:56;;;;;;;72.90;35.30;;;;;;;2.74;87.73;98419.40;433986;1259;97944;-38
2023/01/11 16:49:08;;;;;;;71.00;38.80;;;;;;;2.71;87.89;98414.96;434044;1260;109894;-40
2023/01/11 17:19:34;;;;;;;67.50;35.80;;;;;;;2.89;88.82;98407.14;434060;1260;108705;-41
2023/01/11 17:29:42;;;;;;;103.70;51.20;;;;;;;2.94;89.03;98419.01;434167;1258;97903;-40
2023/01/11 17:50:01;;;;;;;60.30;32.00;;;;;;;3.08;89.43;98397.31;434089;1255;109986;-40
2023/01/11 18:00:17;;;;;;;61.40;33.60;;;;;;;3.18;89.45;98399.90;434085;1261;107961;-38
2023/01/11 18:10:27;;;;;;;66.60;33.30;;;;;;;3.28;89.45;98398.61;434068;1260;96598;-39
2023/01/11 18:20:34;;;;;;;85.60;40.20;;;;;;;3.35;89.57;98396.20;434131;1260;108731;-38
2023/01/11 18:30:51;;;;;;;69.60;35.30;;;;;;;3.37;89.54;98388.13;434087;1261;97938;-40
2023/01/11 18:40:58;;;;;;;63.50;32.80;;;;;;;3.47;89.32;98378.49;434229;1257;97854;-40
2023/01/11 18:51:04;;;;;;;52.60;31.60;;;;;;;3.56;89.31;98367.10;434071;1256;109273;-40
2023/01/11 19:01:11;;;;;;;69.80;32.40;;;;;;;3.64;89.31;98355.38;434138;1260;96656;-39
2023/01/11 19:11:19;;;;;;;46.70;23.90;;;;;;;3.72;89.04;98348.33;434140;1259;110388;-39
2023/01/11 19:21:25;;;;;;;28.50;16.50;;;;;;;3.91;88.42;98347.39;434077;1258;108250;-40
2023/01/11 19:31:33;;;;;;;35.60;16.30;;;;;;;4.08;88.12;98355.84;434185;1259;97925;-39
2023/01/11 19:42:00;;;;;;;34.10;15.40;;;;;;;4.15;87.71;98346.70;434155;1260;109133;-39
2023/01/11 20:02:18;;;;;;;17.40;10.00;;;;;;;4.23;86.97;98369.39;434048;1259;97885;-40
2023/01/11 20:12:25;;;;;;;29.10;13.30;;;;;;;4.40;86.19;98389.51;434248;1261;109911;-39
2023/01/11 20:32:38;;;;;;;21.80;10.70;;;;;;;4.44;85.81;98406.72;434085;1260;97790;-39
2023/01/11 20:42:46;;;;;;;21.00;10.30;;;;;;;4.42;85.76;98418.55;434255;1261;110225;-39
2023/01/11 20:52:53;;;;;;;10.70;5.70;;;;;;;4.50;85.60;98417.22;434063;1260;107106;-39
2023/01/11 21:13:07;;;;;;;14.30;8.70;;;;;;;4.68;85.19;98420.26;434068;1259;109837;-38
2023/01/11 21:33:21;;;;;;;34.50;12.60;;;;;;;4.66;84.85;98438.83;434035;1262;97613;-38
2023/01/11 21:43:28;;;;;;;18.80;8.10;;;;;;;4.68;84.64;98446.13;434076;1259;97944;-40
2023/01/11 21:53:36;;;;;;;18.20;8.70;;;;;;;4.74;84.73;98452.77;434062;1261;109389;-40
2023/01/11 22:03:42;;;;;;;20.80;9.70;;;;;;;4.72;85.00;98454.24;434147;1259;97896;-39
2023/01/11 22:13:50;;;;;;;19.90;9.50;;;;;;;4.61;85.21;98456.27;434166;1260;110262;-38
2023/01/11 22:23:59;;;;;;;21.70;9.80;;;;;;;4.45;85.39;98467.30;434092;1261;107840;-40
2023/01/11 22:34:06;;;;;;;14.40;8.50;;;;;;;4.34;85.40;98482.08;434204;1262;96607;-40
2023/01/11 22:44:14;;;;;;;10.50;6.70;;;;;;;4.28;85.88;98486.52;434097;1260;109830;-38
2023/01/11 22:54:22;;;;;;;12.20;5.90;;;;;;;4.25;86.09;98494.42;434013;1261;107926;-40
2023/01/11 23:04:32;;;;;;;8.90;6.10;;;;;;;4.21;86.47;98495.12;434073;1260;97877;-39
2023/01/11 23:14:39;;;;;;;17.40;7.50;;;;;;;4.17;86.75;98497.59;434168;1262;107696;-40
2023/01/11 23:34:52;;;;;;;10.70;6.80;;;;;;;4.00;87.35;98488.98;434159;1259;110287;-39
2023/01/11 23:44:59;;;;;;;9.70;5.40;;;;;;;4.01;87.66;98490.95;434091;1260;109421;-39
2023/01/11 23:55:06;;;;;;;9.10;5.90;;;;;;;4.07;88.05;98504.46;434054;1260;97878;-39
